createdAt,value
2023-05-13T00:01:20.884Z,64.02
2023-05-13T00:03:47.721Z,63.66
2023-05-13T00:06:14.772Z,63.48
2023-05-13T00:08:41.478Z,62.90
2023-05-13T00:11:08.231Z,62.95
2023-05-13T00:13:34.939Z,62.94
2023-05-13T00:16:02.876Z,62.68
2023-05-13T00:18:29.908Z,63.07
2023-05-13T00:20:56.625Z,63.29
2023-05-13T00:23:23.258Z,63.32
2023-05-13T00:25:50.042Z,63.30
2023-05-13T00:28:16.924Z,63.46
2023-05-13T00:30:45.467Z,63.71
2023-05-13T00:33:12.298Z,63.82
2023-05-13T00:35:38.947Z,64.04
2023-05-13T00:38:05.647Z,63.99
2023-05-13T00:40:34.690Z,64.15
2023-05-13T00:43:01.432Z,64.16
2023-05-13T00:45:28.399Z,64.37
2023-05-13T00:47:55.122Z,64.47
2023-05-13T00:50:22.114Z,64.76
2023-05-13T00:52:50.969Z,64.85
2023-05-13T00:55:17.889Z,64.80
2023-05-13T00:57:44.612Z,64.86
2023-05-13T01:00:12.231Z,64.98
2023-05-13T01:02:43.195Z,65.07
2023-05-13T01:05:24.821Z,65.36
2023-05-13T01:08:20.217Z,65.34
2023-05-13T01:10:51.371Z,65.28
2023-05-13T01:13:24.433Z,65.69
2023-05-13T01:16:01.730Z,65.68
2023-05-13T01:18:36.105Z,65.62
2023-05-13T01:21:04.909Z,65.70
2023-05-13T01:23:32.196Z,65.99
2023-05-13T01:25:59.496Z,65.92
2023-05-13T01:28:26.832Z,65.76
2023-05-13T01:30:57.099Z,65.72
2023-05-13T01:33:26.360Z,65.87
2023-05-13T01:35:53.432Z,65.91
2023-05-13T01:38:21.735Z,65.89
2023-05-13T01:40:53.279Z,66.04
2023-05-13T01:43:20.003Z,66.28
2023-05-13T01:45:47.384Z,66.37
2023-05-13T01:48:14.710Z,66.62
2023-05-13T01:50:44.480Z,66.72
2023-05-13T01:53:11.866Z,66.73
2023-05-13T01:55:38.941Z,66.65
2023-05-13T01:58:05.866Z,66.38
2023-05-13T02:00:32.550Z,66.64
2023-05-13T02:02:59.317Z,66.84
2023-05-13T02:05:26.150Z,66.44
2023-05-13T02:07:53.934Z,66.99
2023-05-13T02:10:20.830Z,67.32
2023-05-13T02:12:50.135Z,67.89
2023-05-13T02:15:18.227Z,67.64
2023-05-13T02:17:45.006Z,67.88
2023-05-13T02:20:12.641Z,67.73
2023-05-13T02:22:39.302Z,68.33
2023-05-13T02:25:07.651Z,68.22
2023-05-13T02:27:37.014Z,67.99
2023-05-13T02:30:04.690Z,67.46
2023-05-13T02:32:31.832Z,67.68
2023-05-13T02:34:58.474Z,67.48
2023-05-13T02:37:25.076Z,67.60
2023-05-13T02:39:59.090Z,67.65
2023-05-13T02:42:25.857Z,67.69
2023-05-13T02:44:52.574Z,67.54
2023-05-13T02:47:20.024Z,67.44
2023-05-13T02:49:46.810Z,67.03
2023-05-13T02:52:13.467Z,67.36
2023-05-13T02:54:40.185Z,66.84
2023-05-13T02:57:07.111Z,66.68
2023-05-13T02:59:34.235Z,67.62
2023-05-13T03:02:00.899Z,67.54
2023-05-13T03:04:27.558Z,68.25
2023-05-13T03:06:54.309Z,68.26
2023-05-13T03:09:21.049Z,68.20
2023-05-13T03:11:48.020Z,68.46
2023-05-13T03:14:14.710Z,68.74
2023-05-13T03:16:41.385Z,69.39
2023-05-13T03:19:08.166Z,69.04
2023-05-13T03:21:34.938Z,69.04
2023-05-13T03:24:01.721Z,69.56
2023-05-13T03:26:28.386Z,69.34
2023-05-13T03:28:55.562Z,69.24
2023-05-13T03:31:23.086Z,69.34
2023-05-13T03:33:49.868Z,69.16
2023-05-13T03:36:16.552Z,68.69
2023-05-13T03:38:43.286Z,68.56
2023-05-13T03:41:10.110Z,68.21
2023-05-13T03:43:36.906Z,67.96
2023-05-13T03:46:08.082Z,68.49
2023-05-13T03:48:34.710Z,68.31
2023-05-13T03:51:02.840Z,68.22
2023-05-13T03:53:29.927Z,68.88
2023-05-13T03:55:57.565Z,69.19
2023-05-13T03:58:24.195Z,69.43
2023-05-13T04:00:50.897Z,69.06
2023-05-13T04:03:18.584Z,69.15
2023-05-13T04:05:49.200Z,68.94
2023-05-13T04:08:15.934Z,69.17
2023-05-13T04:10:43.286Z,68.67
2023-05-13T04:13:11.271Z,68.85
2023-05-13T04:15:37.942Z,69.13
2023-05-13T04:18:06.093Z,68.93
2023-05-13T04:20:34.371Z,69.98
2023-05-13T04:23:01.807Z,69.57
2023-05-13T04:25:29.465Z,69.73
2023-05-13T04:27:56.137Z,69.87
2023-05-13T04:30:28.622Z,69.47
2023-05-13T04:32:55.792Z,68.92
2023-05-13T04:35:22.924Z,68.79
2023-05-13T04:37:53.739Z,68.59
2023-05-13T04:40:21.561Z,68.42
2023-05-13T04:42:54.537Z,68.65
2023-05-13T04:45:25.772Z,68.23
2023-05-13T04:47:52.414Z,68.20
2023-05-13T04:50:19.456Z,68.43
2023-05-13T04:52:47.539Z,68.03
2023-05-13T04:55:15.062Z,67.73
2023-05-13T04:57:42.459Z,67.45
2023-05-13T05:00:11.085Z,67.26
2023-05-13T05:02:39.375Z,66.91
2023-05-13T05:05:06.530Z,66.78
2023-05-13T05:07:40.222Z,66.10
2023-05-13T05:10:08.533Z,65.47
2023-05-13T05:12:38.201Z,64.47
2023-05-13T05:15:06.260Z,63.77
2023-05-13T05:17:34.047Z,63.83
2023-05-13T05:20:02.634Z,63.46
2023-05-13T05:22:29.491Z,62.85
2023-05-13T05:24:56.710Z,61.38
2023-05-13T05:27:24.973Z,60.90
2023-05-13T05:29:52.086Z,60.20
2023-05-13T05:32:19.539Z,59.87
2023-05-13T05:34:46.325Z,59.02
2023-05-13T05:37:13.147Z,58.16
2023-05-13T05:39:41.111Z,57.28
2023-05-13T05:42:08.730Z,56.97
2023-05-13T05:44:36.167Z,57.06
2023-05-13T05:47:03.201Z,55.61
2023-05-13T05:49:32.602Z,55.49
2023-05-13T05:51:59.314Z,54.40
2023-05-13T05:54:28.128Z,53.97
2023-05-13T05:56:54.857Z,53.98
2023-05-13T05:59:21.579Z,53.27
2023-05-13T06:01:48.865Z,52.15
2023-05-13T06:04:15.733Z,51.92
2023-05-13T06:06:42.446Z,51.06
2023-05-13T06:09:09.089Z,50.90
2023-05-13T06:11:35.801Z,50.14
2023-05-13T06:14:03.330Z,49.11
2023-05-13T06:16:30.240Z,49.64
2023-05-13T06:18:57.189Z,48.59
2023-05-13T06:21:25.254Z,49.41
2023-05-13T06:23:51.951Z,49.30
2023-05-13T06:26:20.829Z,49.58
2023-05-13T06:28:47.467Z,48.63
2023-05-13T06:31:15.064Z,48.86
2023-05-13T06:33:43.591Z,47.61
2023-05-13T06:36:10.276Z,47.95
2023-05-13T06:38:37.099Z,47.09
2023-05-13T06:41:03.994Z,46.55
2023-05-13T06:43:36.084Z,45.79
2023-05-13T06:46:13.120Z,45.47
2023-05-13T06:48:39.952Z,43.77
2023-05-13T06:51:07.081Z,44.08
2023-05-13T06:53:33.801Z,43.36
2023-05-13T06:56:00.468Z,43.09
2023-05-13T06:58:27.761Z,43.27
2023-05-13T07:00:54.487Z,41.34
2023-05-13T07:03:21.214Z,42.15
2023-05-13T07:05:47.959Z,42.38
2023-05-13T07:08:17.821Z,41.03
2023-05-13T07:10:44.973Z,41.85
2023-05-13T07:13:12.413Z,40.42
2023-05-13T07:15:39.183Z,40.09
2023-05-13T07:18:05.927Z,40.59
2023-05-13T07:20:32.839Z,40.53
2023-05-13T07:22:59.495Z,39.60
2023-05-13T07:25:26.210Z,40.00
2023-05-13T07:27:52.933Z,39.11
2023-05-13T07:30:19.751Z,38.79
2023-05-13T07:32:46.740Z,38.48
2023-05-13T07:35:13.740Z,39.51
2023-05-13T07:37:40.520Z,38.73
2023-05-13T07:40:10.654Z,37.97
2023-05-13T07:42:37.596Z,37.92
2023-05-13T07:45:04.788Z,36.92
2023-05-13T07:47:31.944Z,37.49
2023-05-13T07:49:58.867Z,36.16
2023-05-13T07:52:26.291Z,36.11
2023-05-13T07:54:52.991Z,34.89
2023-05-13T07:57:19.686Z,35.71
2023-05-13T07:59:46.340Z,36.37
2023-05-13T08:02:13.086Z,35.20
2023-05-13T08:04:40.109Z,34.49
2023-05-13T08:07:06.884Z,34.25
2023-05-13T08:09:33.532Z,34.42
2023-05-13T08:12:00.570Z,33.74
2023-05-13T08:14:27.291Z,32.97
2023-05-13T08:16:54.437Z,32.81
2023-05-13T08:19:21.483Z,34.13
2023-05-13T08:21:48.374Z,34.17
2023-05-13T08:24:15.031Z,32.70
2023-05-13T08:26:41.985Z,32.18
2023-05-13T08:29:12.783Z,31.92
2023-05-13T08:31:39.422Z,32.08
2023-05-13T08:34:06.437Z,32.20
2023-05-13T08:36:33.877Z,31.77
2023-05-13T08:39:01.361Z,31.16
2023-05-13T08:41:29.865Z,31.23
2023-05-13T08:44:00.714Z,29.95
2023-05-13T08:46:28.891Z,29.57
2023-05-13T08:48:55.997Z,29.62
2023-05-13T08:51:22.816Z,30.14
2023-05-13T08:53:51.606Z,29.25
2023-05-13T08:56:18.387Z,28.33
2023-05-13T08:58:44.990Z,28.01
2023-05-13T09:01:12.470Z,27.75
2023-05-13T09:03:52.383Z,26.32
2023-05-13T09:06:19.034Z,25.65
2023-05-13T09:08:45.983Z,26.74
2023-05-13T09:11:16.294Z,25.18
2023-05-13T09:13:44.605Z,25.42
2023-05-13T09:16:14.161Z,23.96
2023-05-13T09:18:42.135Z,24.51
2023-05-13T09:21:24.825Z,24.91
2023-05-13T09:23:56.365Z,25.06
2023-05-13T09:26:30.236Z,24.38
2023-05-13T09:29:21.299Z,25.06
2023-05-13T09:31:54.928Z,24.40
2023-05-13T09:34:26.857Z,24.32
2023-05-13T09:37:08.096Z,23.26
2023-05-13T09:39:40.146Z,23.08
2023-05-13T09:42:15.673Z,22.62
2023-05-13T09:44:48.862Z,22.27
2023-05-13T09:47:17.004Z,21.46
2023-05-13T09:49:44.893Z,21.71
2023-05-13T09:52:17.115Z,21.59
2023-05-13T09:54:44.296Z,22.11
2023-05-13T09:57:13.642Z,20.38
2023-05-13T09:59:40.617Z,20.69
2023-05-13T10:02:08.544Z,19.71
2023-05-13T10:04:35.215Z,21.10
2023-05-13T10:07:09.604Z,22.56
2023-05-13T10:09:37.865Z,22.99
2023-05-13T10:12:07.520Z,23.73
2023-05-13T10:14:36.893Z,23.47
2023-05-13T10:17:05.277Z,23.27
2023-05-13T10:19:32.421Z,21.74
2023-05-13T10:21:59.326Z,22.36
2023-05-13T10:24:28.848Z,22.56
2023-05-13T10:26:56.331Z,23.61
2023-05-13T10:29:24.804Z,23.73
2023-05-13T10:31:51.813Z,25.19
2023-05-13T10:34:18.554Z,25.12
2023-05-13T10:37:03.708Z,24.60
2023-05-13T10:40:08.625Z,23.30
2023-05-13T10:42:40.908Z,22.51
2023-05-13T10:45:10.964Z,22.55
2023-05-13T10:47:38.313Z,24.59
2023-05-13T10:50:25.882Z,24.45
2023-05-13T10:52:57.107Z,24.06
2023-05-13T10:55:26.123Z,25.29
2023-05-13T10:58:04.667Z,26.41
2023-05-13T11:00:31.974Z,25.48
2023-05-13T11:03:29.750Z,26.80
2023-05-13T11:06:01.031Z,27.03
2023-05-13T11:08:40.813Z,25.04
2023-05-13T11:11:23.274Z,25.14
2023-05-13T11:13:51.321Z,25.94
2023-05-13T11:16:23.090Z,27.25
2023-05-13T11:18:51.891Z,27.45
2023-05-13T11:21:30.116Z,26.91
2023-05-13T11:23:59.022Z,26.07
2023-05-13T11:26:25.809Z,24.63
2023-05-13T11:29:03.512Z,23.46
2023-05-13T11:31:43.563Z,22.10
2023-05-13T11:34:13.005Z,22.03
2023-05-13T11:36:41.934Z,21.48
2023-05-13T11:39:21.371Z,22.40
2023-05-13T11:41:53.287Z,24.04
2023-05-13T11:44:21.551Z,23.53
2023-05-13T11:46:59.835Z,23.01
2023-05-13T11:49:32.872Z,24.43
2023-05-13T11:52:03.368Z,25.94
2023-05-13T11:54:30.297Z,25.51
2023-05-13T11:56:57.080Z,24.49
2023-05-13T11:59:24.634Z,24.54
2023-05-13T12:02:02.003Z,25.59
2023-05-13T12:04:30.698Z,27.00
2023-05-13T12:06:58.042Z,28.02
2023-05-13T12:09:25.476Z,29.25
2023-05-13T12:11:53.771Z,30.30
2023-05-13T12:14:21.554Z,30.02
2023-05-13T12:16:48.827Z,29.43
2023-05-13T12:19:15.654Z,29.83
2023-05-13T12:21:42.557Z,30.66
2023-05-13T12:24:22.082Z,30.16
2023-05-13T12:26:49.381Z,30.27
2023-05-13T12:29:16.296Z,31.20
2023-05-13T12:32:03.919Z,32.28
2023-05-13T12:34:32.473Z,32.93
2023-05-13T12:37:11.016Z,32.25
2023-05-13T12:39:38.315Z,33.03
2023-05-13T12:42:05.192Z,33.46
2023-05-13T12:44:32.053Z,32.28
2023-05-13T12:46:59.248Z,31.43
2023-05-13T12:49:26.280Z,30.93
2023-05-13T12:51:52.949Z,30.21
2023-05-13T12:54:19.632Z,29.97
2023-05-13T12:56:46.520Z,30.93
2023-05-13T12:59:14.371Z,31.23
2023-05-13T13:01:42.779Z,30.61
2023-05-13T13:04:12.722Z,30.86
2023-05-13T13:06:39.704Z,29.93
2023-05-13T13:09:06.400Z,29.89
2023-05-13T13:11:33.074Z,29.18
2023-05-13T13:13:59.747Z,30.35
2023-05-13T13:16:32.946Z,30.25
2023-05-13T13:19:01.793Z,30.28
2023-05-13T13:21:28.899Z,30.80
2023-05-13T13:23:55.567Z,28.97
2023-05-13T13:26:23.173Z,29.32
2023-05-13T13:28:52.804Z,28.23
2023-05-13T13:31:19.455Z,29.00
2023-05-13T13:33:46.172Z,30.82
2023-05-13T13:36:15.142Z,30.47
2023-05-13T13:38:41.780Z,30.32
2023-05-13T13:41:08.538Z,28.97
2023-05-13T13:43:35.212Z,28.87
2023-05-13T13:46:02.232Z,29.09
2023-05-13T13:48:28.953Z,28.30
2023-05-13T13:50:55.567Z,28.00
2023-05-13T13:53:22.263Z,28.01
2023-05-13T13:55:49.011Z,27.82
2023-05-13T13:58:15.771Z,28.19
2023-05-13T14:00:42.470Z,27.08
2023-05-13T14:03:09.292Z,27.76
2023-05-13T14:05:39.077Z,27.26
2023-05-13T14:08:08.459Z,27.51
2023-05-13T14:10:35.218Z,28.57
2023-05-13T14:13:01.988Z,28.11
2023-05-13T14:15:30.585Z,28.25
2023-05-13T14:17:57.616Z,28.42
2023-05-13T14:20:25.024Z,28.85
2023-05-13T14:22:51.777Z,29.06
2023-05-13T14:25:18.446Z,29.68
2023-05-13T14:27:45.390Z,30.03
2023-05-13T14:30:15.152Z,30.70
2023-05-13T14:32:45.595Z,31.62
2023-05-13T14:35:13.132Z,34.19
2023-05-13T14:37:41.463Z,33.44
2023-05-13T14:40:11.113Z,32.21
2023-05-13T14:42:37.886Z,33.00
2023-05-13T14:45:04.912Z,33.05
2023-05-13T14:47:31.792Z,33.54
2023-05-13T14:49:58.634Z,33.70
2023-05-13T14:52:25.482Z,34.37
2023-05-13T14:54:52.216Z,34.42
2023-05-13T14:57:19.087Z,34.38
2023-05-13T14:59:45.719Z,34.01
2023-05-13T15:02:13.821Z,32.72
2023-05-13T15:04:40.584Z,33.42
2023-05-13T15:07:07.429Z,32.95
2023-05-13T15:09:34.080Z,31.03
2023-05-13T15:12:00.877Z,29.59
2023-05-13T15:14:28.254Z,30.16
2023-05-13T15:16:55.106Z,30.33
2023-05-13T15:19:21.827Z,34.48
2023-05-13T15:21:48.444Z,34.04
2023-05-13T15:24:15.220Z,31.92
2023-05-13T15:26:41.865Z,32.23
2023-05-13T15:29:08.527Z,32.99
2023-05-13T15:31:35.414Z,32.79
2023-05-13T15:34:03.178Z,32.43
2023-05-13T15:36:29.849Z,32.38
2023-05-13T15:39:10.799Z,32.28
2023-05-13T15:41:37.674Z,32.93
2023-05-13T15:44:05.233Z,31.91
2023-05-13T15:46:33.566Z,32.42
2023-05-13T15:49:01.051Z,32.06
2023-05-13T15:51:28.291Z,32.08
2023-05-13T15:53:54.942Z,34.10
2023-05-13T15:56:25.699Z,38.67
2023-05-13T15:58:52.882Z,40.00
2023-05-13T16:01:19.586Z,39.56
2023-05-13T16:03:46.318Z,40.89
2023-05-13T16:06:13.373Z,40.92
2023-05-13T16:08:39.996Z,41.11
2023-05-13T16:11:06.721Z,42.37
2023-05-13T16:13:33.447Z,42.78
2023-05-13T16:16:00.216Z,43.95
2023-05-13T16:18:26.956Z,43.79
2023-05-13T16:20:54.854Z,43.65
2023-05-13T16:23:21.562Z,43.91
2023-05-13T16:25:48.198Z,43.76
2023-05-13T16:28:15.484Z,43.64
2023-05-13T16:30:42.567Z,42.87
2023-05-13T16:33:09.581Z,43.09
2023-05-13T16:35:38.822Z,43.42
2023-05-13T16:38:05.929Z,42.91
2023-05-13T16:40:33.289Z,43.78
2023-05-13T16:43:03.264Z,43.44
2023-05-13T16:45:30.949Z,43.20
2023-05-13T16:47:57.774Z,43.74
2023-05-13T16:50:24.800Z,44.62
2023-05-13T16:52:54.852Z,44.69
2023-05-13T16:55:22.395Z,44.46
2023-05-13T16:57:49.099Z,43.72
2023-05-13T17:00:16.106Z,43.92
2023-05-13T17:02:43.264Z,43.24
2023-05-13T17:05:10.017Z,43.17
2023-05-13T17:07:36.734Z,41.30
2023-05-13T17:10:03.803Z,41.14
2023-05-13T17:12:30.571Z,40.43
2023-05-13T17:14:57.248Z,40.28
2023-05-13T17:17:23.983Z,40.25
2023-05-13T17:19:50.656Z,40.89
2023-05-13T17:22:17.379Z,40.53
2023-05-13T17:24:44.044Z,40.18
2023-05-13T17:27:10.892Z,40.46
2023-05-13T17:29:37.688Z,40.48
2023-05-13T17:32:05.196Z,40.49
2023-05-13T17:34:31.850Z,40.71
2023-05-13T17:36:58.540Z,40.37
2023-05-13T17:39:25.372Z,40.64
2023-05-13T17:41:52.198Z,40.72
2023-05-13T17:44:19.959Z,40.88
2023-05-13T17:46:46.725Z,41.19
2023-05-13T17:49:19.028Z,41.52
2023-05-13T17:51:45.782Z,41.01
2023-05-13T17:54:12.472Z,41.01
2023-05-13T17:56:39.215Z,41.30
2023-05-13T17:59:06.777Z,40.92
2023-05-13T18:01:33.466Z,40.74
2023-05-13T18:04:00.756Z,41.47
2023-05-13T18:06:27.480Z,41.30
2023-05-13T18:08:54.386Z,41.33
2023-05-13T18:11:23.761Z,41.43
2023-05-13T18:13:58.580Z,41.69
2023-05-13T18:16:25.346Z,42.18
2023-05-13T18:18:52.104Z,41.98
2023-05-13T18:21:18.889Z,42.35
2023-05-13T18:23:46.496Z,42.15
2023-05-13T18:26:16.317Z,41.92
2023-05-13T18:28:45.756Z,42.83
2023-05-13T18:31:12.562Z,42.45
2023-05-13T18:33:45.484Z,43.18
2023-05-13T18:36:12.221Z,42.83
2023-05-13T18:38:41.790Z,42.94
2023-05-13T18:41:09.222Z,43.89
2023-05-13T18:43:35.882Z,43.29
2023-05-13T18:46:02.603Z,43.40
2023-05-13T18:48:29.347Z,43.63
2023-05-13T18:50:58.723Z,43.70
2023-05-13T18:53:25.392Z,44.43
2023-05-13T18:55:52.256Z,44.80
2023-05-13T18:58:21.836Z,45.67
2023-05-13T19:00:48.656Z,45.97
2023-05-13T19:03:15.550Z,45.73
2023-05-13T19:05:42.321Z,46.69
2023-05-13T19:08:08.977Z,46.97
2023-05-13T19:10:40.008Z,47.61
2023-05-13T19:13:07.515Z,47.98
2023-05-13T19:15:34.253Z,48.10
2023-05-13T19:18:01.276Z,47.33
2023-05-13T19:20:29.731Z,46.53
2023-05-13T19:22:56.419Z,45.75
2023-05-13T19:25:26.062Z,45.80
2023-05-13T19:27:52.919Z,46.36
2023-05-13T19:30:19.643Z,46.51
2023-05-13T19:32:46.707Z,46.98
2023-05-13T19:35:13.379Z,47.29
2023-05-13T19:37:40.325Z,47.86
2023-05-13T19:40:10.732Z,48.55
2023-05-13T19:42:37.818Z,48.23
2023-05-13T19:45:07.533Z,47.79
2023-05-13T19:47:37.461Z,48.38
2023-05-13T19:50:04.751Z,49.43
2023-05-13T19:52:31.462Z,49.06
2023-05-13T19:54:58.556Z,49.11
2023-05-13T19:57:28.012Z,50.50
2023-05-13T19:59:55.982Z,52.03
2023-05-13T20:02:22.766Z,51.92
2023-05-13T20:04:49.498Z,51.87
2023-05-13T20:07:16.200Z,51.95
2023-05-13T20:09:43.007Z,51.43
2023-05-13T20:12:09.838Z,51.13
2023-05-13T20:14:47.011Z,51.39
2023-05-13T20:17:19.417Z,52.29
2023-05-13T20:19:49.593Z,51.25
2023-05-13T20:22:17.815Z,51.50
2023-05-13T20:24:48.866Z,52.52
2023-05-13T20:27:16.899Z,52.94
2023-05-13T20:29:45.712Z,53.19
2023-05-13T20:32:12.883Z,53.91
2023-05-13T20:34:39.861Z,53.81
2023-05-13T20:37:06.685Z,53.81
2023-05-13T20:39:33.332Z,54.31
2023-05-13T20:41:59.960Z,54.05
2023-05-13T20:44:26.640Z,54.27
2023-05-13T20:46:53.372Z,54.41
2023-05-13T20:49:20.042Z,54.72
2023-05-13T20:51:48.140Z,54.65
2023-05-13T20:54:15.301Z,54.85
2023-05-13T20:56:41.952Z,54.72
2023-05-13T20:59:08.882Z,53.99
2023-05-13T21:01:36.101Z,53.37
2023-05-13T21:04:05.853Z,55.35
2023-05-13T21:06:32.962Z,53.90
2023-05-13T21:08:59.580Z,53.88
2023-05-13T21:11:26.466Z,53.80
2023-05-13T21:13:53.194Z,53.72
2023-05-13T21:16:19.858Z,54.35
2023-05-13T21:18:46.683Z,53.47
2023-05-13T21:21:13.336Z,53.57
2023-05-13T21:23:42.434Z,53.13
2023-05-13T21:26:13.176Z,52.90
2023-05-13T21:28:40.000Z,53.06
2023-05-13T21:31:07.151Z,52.89
2023-05-13T21:33:33.887Z,52.96
2023-05-13T21:36:00.481Z,52.98
2023-05-13T21:38:27.259Z,52.58
2023-05-13T21:40:54.441Z,53.33
2023-05-13T21:43:21.114Z,53.39
2023-05-13T21:45:48.135Z,52.90
2023-05-13T21:48:15.162Z,53.86
2023-05-13T21:50:41.998Z,54.38
2023-05-13T21:53:08.647Z,54.55
2023-05-13T21:55:35.247Z,55.08
2023-05-13T21:58:02.955Z,55.90
2023-05-13T22:00:30.145Z,55.78
2023-05-13T22:03:01.278Z,55.74
2023-05-13T22:05:28.314Z,55.69
2023-05-13T22:07:55.133Z,56.19
2023-05-13T22:10:21.896Z,56.51
2023-05-13T22:12:48.736Z,56.60
2023-05-13T22:15:15.714Z,56.91
2023-05-13T22:17:42.462Z,57.07
2023-05-13T22:20:09.535Z,56.87
2023-05-13T22:22:36.211Z,57.06
2023-05-13T22:25:03.347Z,56.48
2023-05-13T22:27:30.092Z,56.96
2023-05-13T22:29:56.821Z,57.50
2023-05-13T22:32:23.651Z,58.03
2023-05-13T22:34:50.832Z,57.97
2023-05-13T22:37:17.440Z,57.66
2023-05-13T22:39:44.243Z,58.21
2023-05-13T22:42:11.062Z,58.23
2023-05-13T22:44:38.700Z,58.09
2023-05-13T22:47:05.924Z,57.96
2023-05-13T22:49:32.559Z,58.69
2023-05-13T22:51:59.236Z,58.90
2023-05-13T22:54:25.963Z,59.02
2023-05-13T22:56:52.662Z,58.92
2023-05-13T22:59:19.335Z,58.46
2023-05-13T23:01:46.111Z,58.69
2023-05-13T23:04:12.920Z,59.01
2023-05-13T23:06:39.578Z,59.41
2023-05-13T23:09:07.459Z,59.27
2023-05-13T23:11:36.116Z,59.37
2023-05-13T23:14:02.752Z,59.33
2023-05-13T23:16:29.567Z,59.66
2023-05-13T23:18:56.330Z,60.10
2023-05-13T23:21:23.021Z,60.38
2023-05-13T23:23:50.353Z,60.96
2023-05-13T23:26:17.143Z,60.54
2023-05-13T23:28:43.829Z,60.44
2023-05-13T23:31:10.607Z,60.07
2023-05-13T23:33:37.281Z,59.75
2023-05-13T23:36:04.183Z,59.82
2023-05-13T23:38:30.825Z,59.65
2023-05-13T23:40:57.477Z,59.42
2023-05-13T23:43:24.077Z,59.71
2023-05-13T23:45:50.935Z,60.13
2023-05-13T23:48:17.619Z,60.09
2023-05-13T23:50:44.350Z,60.79
2023-05-13T23:53:11.008Z,61.15
2023-05-13T23:55:37.650Z,60.64
2023-05-13T23:58:04.430Z,60.63
